Buoy 46562

sailwx.info

Track history (hours):
 
Tides and Currents Weather Stations Pressure Air Temp Water Temp Dewpoint Dewpoint Depression Visibility Wind Speed Wind Dir Waves Ship Positions

Drifting buoy 46562

Last reported at 2014-Dec-15 20:00 UTC. Time now 2014-Dec-20 11:34 UTC.
Position N 54°28' W 162°44'.

Water temperature 1.8 ° C

Date/timePositionNaut miles runAvg speedWind from/ knotsBaromVisibWave heightAir tempDewpointWater temp
2014-Dec-15 20:00N 54°28' W 162°44'1 0.3 1.8
2014-Dec-15 18:00N 54°29' W 162°44'0 0.0 2.4
2014-Dec-15 17:00N 54°29' W 162°44'0 0.0 3.0
2014-Dec-15 16:00N 54°29' W 162°44'0 0.3 3.1
2014-Dec-15 15:00N 54°29' W 162°43'0 0.0 3.8
2014-Dec-15 14:00N 54°29' W 162°43'0 0.0 4.0
2014-Dec-15 13:00N 54°29' W 162°43'0 0.3 3.9
2014-Dec-15 12:00N 54°29' W 162°44'0 0.0 4.0
2014-Dec-15 11:00N 54°29' W 162°44'0 0.0 3.6
2014-Dec-15 08:00N 54°29' W 162°44'0 0.0 3.5
2014-Dec-15 07:00N 54°29' W 162°44'0 0.0 3.3
2014-Dec-15 06:00N 54°29' W 162°44'0 0.0 3.1
2014-Dec-15 05:00N 54°29' W 162°44'1 0.6 2.3
2014-Dec-15 04:00N 54°28' W 162°44'1 0.6 2.3
2014-Dec-15 03:00N 54°29' W 162°44'0 0.0 3.0
2014-Dec-15 02:00N 54°29' W 162°44'1 0.3 3.1
2014-Dec-15 00:00N 54°28' W 162°44'0 0.0 3.1
2014-Dec-14 23:00N 54°28' W 162°44'0 0.0 2.8
2014-Dec-14 22:00N 54°28' W 162°44'0 0.0 3.3
2014-Dec-14 21:00N 54°28' W 162°44'0 0.0 3.0
2014-Dec-14 20:00N 54°28' W 162°44'1 0.2 3.3
2014-Dec-14 17:00N 54°29' W 162°44'1 0.7 4.3
2014-Dec-14 16:00N 54°28' W 162°43'0 0.3 5.1
2014-Dec-14 15:00N 54°28' W 162°44'0 0.0 5.4
2014-Dec-14 14:00N 54°28' W 162°44'1 0.6 5.1
2014-Dec-14 13:00N 54°29' W 162°44'0 0.0 3.9
2014-Dec-14 12:00N 54°29' W 162°44'1 0.7 3.4
2014-Dec-14 11:00N 54°29' W 162°45'1 0.3 3.7
2014-Dec-14 07:00N 54°28' W 162°43'1 0.9 4.0
2014-Dec-14 06:00N 54°29' W 162°42'1 0.7 4.2
2014-Dec-14 05:00N 54°29' W 162°43'1 0.6 4.1
2014-Dec-14 04:00N 54°28' W 162°43'0 0.0 4.0
2014-Dec-14 03:00N 54°28' W 162°43'0 0.2 4.1
2014-Dec-14 02:00N 54°28' W 162°43'0 0.0 4.0
2014-Dec-14 01:00N 54°28' W 162°43'0 0.1 3.9
2014-Dec-14 00:00N 54°28' W 162°43'0 0.0 3.9
2014-Dec-13 23:00N 54°28' W 162°43'0 0.0 3.8
2014-Dec-13 00:00N 54°28' W 162°43'0 0.1 3.5
2014-Dec-12 22:00N 54°28' W 162°44'0 0.0 3.2
2014-Dec-12 21:00N 54°28' W 162°44'0 0.2 3.2
2014-Dec-12 20:00N 54°29' W 162°44'0 0.0 3.3
2014-Dec-12 17:00N 54°29' W 162°44'1 0.1 3.6
2014-Dec-12 04:00N 54°29' W 162°43'1 0.5 3.0
2014-Dec-12 02:00N 54°28' W 162°44'0 0.0 3.3
2014-Dec-12 01:00N 54°28' W 162°44'0 0.1 3.4
2014-Dec-12 00:00N 54°28' W 162°44'0 0.2 3.3
2014-Dec-11 23:00N 54°28' W 162°43'0 0.0 3.5
2014-Dec-11 22:00N 54°28' W 162°43'0 0.2 3.2
2014-Dec-11 21:00N 54°28' W 162°43'0 0.1 3.4
2014-Dec-11 17:00N 54°28' W 162°44'0 0.2 3.5
2014-Dec-11 16:00N 54°28' W 162°43'0 0.0 3.4
2014-Dec-11 15:00N 54°28' W 162°43'1 0.5 3.5
2014-Dec-11 14:00N 54°29' W 162°44'0 0.0 3.6
2014-Dec-11 12:00N 54°29' W 162°44'0 0.0 3.9
2014-Dec-11 11:00N 54°29' W 162°44'0 0.1 3.6
2014-Dec-11 06:00N 54°29' W 162°44'0 0.2 4.0
2014-Dec-11 05:00N 54°28' W 162°43'0 0.1 4.1
2014-Dec-11 02:00N 54°28' W 162°43'0 0.1 4.2
2014-Dec-11 01:00N 54°28' W 162°43'0 0.2 4.3
2014-Dec-11 00:00N 54°28' W 162°43'0 0.2 4.7
2014-Dec-10 23:00N 54°28' W 162°43'0 0.2 4.9
2014-Dec-10 22:00N 54°29' W 162°43'0 0.0 5.0
2014-Dec-10 21:00N 54°29' W 162°43'0 0.1 4.9
2014-Dec-10 20:00N 54°29' W 162°44'1 0.2 4.8
2014-Dec-10 16:00N 54°28' W 162°45'1 0.4 5.5
2014-Dec-10 14:00N 54°29' W 162°44'0 0.0 5.5
2014-Dec-10 13:00N 54°29' W 162°43'1 0.7 5.5
2014-Dec-10 12:00N 54°29' W 162°43'0 0.0 5.5
2014-Dec-10 11:00N 54°29' W 162°43'0 0.0 5.3
2014-Dec-10 08:00N 54°29' W 162°43'0 0.0 5.5
2014-Dec-10 07:00N 54°29' W 162°43'0 0.0 5.4
2014-Dec-10 06:00N 54°29' W 162°43'1 0.8 5.4
2014-Dec-10 05:00N 54°28' W 162°43'0 0.0 5.5
2014-Dec-10 02:00N 54°28' W 162°43'0 0.0 5.6
2014-Dec-10 01:00N 54°28' W 162°43'0 0.0 6.0
2014-Dec-10 00:00N 54°28' W 162°43'0 0.0 6.8
2014-Dec-09 23:00N 54°28' W 162°43'0 0.2 7.2
2014-Dec-09 21:00N 54°29' W 162°44'0 0.0 7.2
2014-Dec-09 20:00N 54°29' W 162°44'0 0.1 7.2
2014-Dec-09 17:00N 54°28' W 162°45'1 0.6 7.2
2014-Dec-09 16:00N 54°29' W 162°44'0 0.1 7.2
2014-Dec-09 15:00N 54°29' W 162°43'0 0.2 7.2
2014-Dec-09 14:00N 54°29' W 162°44'0 0.1 7.2
2014-Dec-09 13:00N 54°29' W 162°44'0 0.1 7.2
2014-Dec-09 09:00N 54°28' W 162°44'0 0.1 7.2
2014-Dec-09 08:00N 54°28' W 162°45'1 0.3 7.2
2014-Dec-09 06:00N 54°29' W 162°44'0 0.1 7.2
2014-Dec-09 04:00N 54°28' W 162°43'0 0.1 7.2
2014-Dec-09 02:00N 54°28' W 162°43'0 0.3 7.2
2014-Dec-09 01:00N 54°28' W 162°44'2 0.4 7.2
2014-Dec-08 18:00N 54°28' W 162°39'1 1.0 7.3
2014-Dec-08 17:00N 54°28' W 162°38'1 1.2 7.3
2014-Dec-08 16:00N 54°28' W 162°36'1 1.4 7.3
2014-Dec-08 15:00N 54°28' W 162°33'1 0.6 7.3
2014-Dec-08 14:00N 54°27' W 162°33'0 0.2 7.4
2014-Dec-08 13:00N 54°27' W 162°33'2 1.0 7.4
2014-Dec-08 11:00N 54°26' W 162°30'1 0.3 7.3
2014-Dec-08 08:00N 54°27' W 162°30'2 1.5 7.4
2014-Dec-08 07:00N 54°27' W 162°28'0 0.0 7.4
2014-Dec-08 06:00N 54°27' W 162°28'1 0.5 7.3
2014-Dec-08 04:00N 54°28' W 162°29'0 0.0 7.3
2014-Dec-08 03:00N 54°28' W 162°29'1 0.5 7.2
2014-Dec-08 01:00N 54°29' W 162°29'2 0.8 7.3
2014-Dec-07 23:00N 54°30' W 162°28'0 0.0 7.1
2014-Dec-07 21:00N 54°30' W 162°28'2 2.1 7.2
2014-Dec-07 20:00N 54°32' W 162°26'0 0.2 7.3
2014-Dec-07 18:00N 54°32' W 162°26'0 0.0 7.4
2014-Dec-07 17:00N 54°32' W 162°26'2 1.1 7.4
2014-Dec-07 15:00N 54°34' W 162°24'0 0.0 7.3
2014-Dec-07 14:00N 54°34' W 162°24'0 0.2 7.4
2014-Dec-07 13:00N 54°34' W 162°24'3 1.1 7.4
2014-Dec-07 10:00N 54°34' W 162°18'3 1.0 7.3
2014-Dec-07 07:00N 54°34' W 162°13'0 0.4 7.3
2014-Dec-07 06:00N 54°35' W 162°13'1 1.0 7.3
2014-Dec-07 05:00N 54°35' W 162°12'1 0.6 7.3
2014-Dec-07 03:00N 54°36' W 162°11'2 1.2 7.3
2014-Dec-07 01:00N 54°38' W 162°08'0 0.0 7.4
2014-Dec-07 00:00N 54°38' W 162°08'0 0.1 7.4
2014-Dec-06 23:00N 54°38' W 162°08'1 1.0 7.4
2014-Dec-06 22:00N 54°38' W 162°06'1 0.5 7.4
2014-Dec-06 20:00N 54°38' W 162°04'1 0.2 7.4
2014-Dec-06 17:00N 54°38' W 162°03'0 0.0 7.4
2014-Dec-06 15:00N 54°38' W 162°03'1 0.6 7.3
2014-Dec-06 13:00N 54°39' W 162°01'0 0.0 7.3
2014-Dec-06 12:00N 54°39' W 162°02'0 0.5 7.2
2014-Dec-06 11:00N 54°39' W 162°01'0 0.0 7.3
2014-Dec-06 09:00N 54°39' W 162°01'1 1.1 7.3
2014-Dec-06 08:00N 54°39' W 161°59'0 0.4 7.3
2014-Dec-06 07:00N 54°39' W 161°58'1 1.2 7.3
2014-Dec-06 06:00N 54°39' W 161°56'2 0.8 7.3
2014-Dec-06 03:00N 54°40' W 161°53'0 0.1 7.3
2014-Dec-06 02:00N 54°40' W 161°53'0 0.2 7.4
2014-Dec-06 01:00N 54°40' W 161°52'2 2.1 7.4
2014-Dec-06 00:00N 54°42' W 161°50'0 0.2 7.4
2014-Dec-05 23:00N 54°42' W 161°50'0 0.4 7.4
2014-Dec-05 22:00N 54°42' W 161°50'0 0.2 7.3
2014-Dec-05 21:00N 54°42' W 161°50'0 0.1 7.3
2014-Dec-05 20:00N 54°42' W 161°50'   7.3
Track history (hours):
 
Tides and Currents Weather Stations Pressure Air Temp Water Temp Dewpoint Dewpoint Depression Visibility Wind Speed Wind Dir Waves Ship Positions

Drifting buoy 46562

Last reported at 2014-Dec-15 20:00 UTC. Time now 2014-Dec-20 11:34 UTC.
Position N 54°28' W 162°44'.

Water temperature 1.8 ° C

Date/timePositionNaut miles runAvg speedWind from/ knotsBaromVisibWave heightAir tempDewpointWater temp
2014-Dec-15 20:00N 54°28' W 162°44'1 0.3 1.8
2014-Dec-15 18:00N 54°29' W 162°44'0 0.0 2.4
2014-Dec-15 17:00N 54°29' W 162°44'0 0.0 3.0
2014-Dec-15 16:00N 54°29' W 162°44'0 0.3 3.1
2014-Dec-15 15:00N 54°29' W 162°43'0 0.0 3.8
2014-Dec-15 14:00N 54°29' W 162°43'0 0.0 4.0
2014-Dec-15 13:00N 54°29' W 162°43'0 0.3 3.9
2014-Dec-15 12:00N 54°29' W 162°44'0 0.0 4.0
2014-Dec-15 11:00N 54°29' W 162°44'0 0.0 3.6
2014-Dec-15 08:00N 54°29' W 162°44'0 0.0 3.5
2014-Dec-15 07:00N 54°29' W 162°44'0 0.0 3.3
2014-Dec-15 06:00N 54°29' W 162°44'0 0.0 3.1
2014-Dec-15 05:00N 54°29' W 162°44'1 0.6 2.3
2014-Dec-15 04:00N 54°28' W 162°44'1 0.6 2.3
2014-Dec-15 03:00N 54°29' W 162°44'0 0.0 3.0
2014-Dec-15 02:00N 54°29' W 162°44'1 0.3 3.1
2014-Dec-15 00:00N 54°28' W 162°44'0 0.0 3.1
2014-Dec-14 23:00N 54°28' W 162°44'0 0.0 2.8
2014-Dec-14 22:00N 54°28' W 162°44'0 0.0 3.3
2014-Dec-14 21:00N 54°28' W 162°44'0 0.0 3.0
2014-Dec-14 20:00N 54°28' W 162°44'1 0.2 3.3
2014-Dec-14 17:00N 54°29' W 162°44'1 0.7 4.3
2014-Dec-14 16:00N 54°28' W 162°43'0 0.3 5.1
2014-Dec-14 15:00N 54°28' W 162°44'0 0.0 5.4
2014-Dec-14 14:00N 54°28' W 162°44'1 0.6 5.1
2014-Dec-14 13:00N 54°29' W 162°44'0 0.0 3.9
2014-Dec-14 12:00N 54°29' W 162°44'1 0.7 3.4
2014-Dec-14 11:00N 54°29' W 162°45'1 0.3 3.7
2014-Dec-14 07:00N 54°28' W 162°43'1 0.9 4.0
2014-Dec-14 06:00N 54°29' W 162°42'1 0.7 4.2
2014-Dec-14 05:00N 54°29' W 162°43'1 0.6 4.1
2014-Dec-14 04:00N 54°28' W 162°43'0 0.0 4.0
2014-Dec-14 03:00N 54°28' W 162°43'0 0.2 4.1
2014-Dec-14 02:00N 54°28' W 162°43'0 0.0 4.0
2014-Dec-14 01:00N 54°28' W 162°43'0 0.1 3.9
2014-Dec-14 00:00N 54°28' W 162°43'0 0.0 3.9
2014-Dec-13 23:00N 54°28' W 162°43'0 0.0 3.8
2014-Dec-13 00:00N 54°28' W 162°43'0 0.1 3.5
2014-Dec-12 22:00N 54°28' W 162°44'0 0.0 3.2
2014-Dec-12 21:00N 54°28' W 162°44'0 0.2 3.2
2014-Dec-12 20:00N 54°29' W 162°44'0 0.0 3.3
2014-Dec-12 17:00N 54°29' W 162°44'1 0.1 3.6
2014-Dec-12 04:00N 54°29' W 162°43'1 0.5 3.0
2014-Dec-12 02:00N 54°28' W 162°44'0 0.0 3.3
2014-Dec-12 01:00N 54°28' W 162°44'0 0.1 3.4
2014-Dec-12 00:00N 54°28' W 162°44'0 0.2 3.3
2014-Dec-11 23:00N 54°28' W 162°43'0 0.0 3.5
2014-Dec-11 22:00N 54°28' W 162°43'0 0.2 3.2
2014-Dec-11 21:00N 54°28' W 162°43'0 0.1 3.4
2014-Dec-11 17:00N 54°28' W 162°44'0 0.2 3.5
2014-Dec-11 16:00N 54°28' W 162°43'0 0.0 3.4
2014-Dec-11 15:00N 54°28' W 162°43'1 0.5 3.5
2014-Dec-11 14:00N 54°29' W 162°44'0 0.0 3.6
2014-Dec-11 12:00N 54°29' W 162°44'0 0.0 3.9
2014-Dec-11 11:00N 54°29' W 162°44'0 0.1 3.6
2014-Dec-11 06:00N 54°29' W 162°44'0 0.2 4.0
2014-Dec-11 05:00N 54°28' W 162°43'0 0.1 4.1
2014-Dec-11 02:00N 54°28' W 162°43'0 0.1 4.2
2014-Dec-11 01:00N 54°28' W 162°43'0 0.2 4.3
2014-Dec-11 00:00N 54°28' W 162°43'0 0.2 4.7
2014-Dec-10 23:00N 54°28' W 162°43'0 0.2 4.9
2014-Dec-10 22:00N 54°29' W 162°43'0 0.0 5.0
2014-Dec-10 21:00N 54°29' W 162°43'0 0.1 4.9
2014-Dec-10 20:00N 54°29' W 162°44'1 0.2 4.8
2014-Dec-10 16:00N 54°28' W 162°45'1 0.4 5.5
2014-Dec-10 14:00N 54°29' W 162°44'0 0.0 5.5
2014-Dec-10 13:00N 54°29' W 162°43'1 0.7 5.5
2014-Dec-10 12:00N 54°29' W 162°43'0 0.0 5.5
2014-Dec-10 11:00N 54°29' W 162°43'0 0.0 5.3
2014-Dec-10 08:00N 54°29' W 162°43'0 0.0 5.5
2014-Dec-10 07:00N 54°29' W 162°43'0 0.0 5.4
2014-Dec-10 06:00N 54°29' W 162°43'1 0.8 5.4
2014-Dec-10 05:00N 54°28' W 162°43'0 0.0 5.5
2014-Dec-10 02:00N 54°28' W 162°43'0 0.0 5.6
2014-Dec-10 01:00N 54°28' W 162°43'0 0.0 6.0
2014-Dec-10 00:00N 54°28' W 162°43'0 0.0 6.8
2014-Dec-09 23:00N 54°28' W 162°43'0 0.2 7.2
2014-Dec-09 21:00N 54°29' W 162°44'0 0.0 7.2
2014-Dec-09 20:00N 54°29' W 162°44'0 0.1 7.2
2014-Dec-09 17:00N 54°28' W 162°45'1 0.6 7.2
2014-Dec-09 16:00N 54°29' W 162°44'0 0.1 7.2
2014-Dec-09 15:00N 54°29' W 162°43'0 0.2 7.2
2014-Dec-09 14:00N 54°29' W 162°44'0 0.1 7.2
2014-Dec-09 13:00N 54°29' W 162°44'0 0.1 7.2
2014-Dec-09 09:00N 54°28' W 162°44'0 0.1 7.2
2014-Dec-09 08:00N 54°28' W 162°45'1 0.3 7.2
2014-Dec-09 06:00N 54°29' W 162°44'0 0.1 7.2
2014-Dec-09 04:00N 54°28' W 162°43'0 0.1 7.2
2014-Dec-09 02:00N 54°28' W 162°43'0 0.3 7.2
2014-Dec-09 01:00N 54°28' W 162°44'2 0.4 7.2
2014-Dec-08 18:00N 54°28' W 162°39'1 1.0 7.3
2014-Dec-08 17:00N 54°28' W 162°38'1 1.2 7.3
2014-Dec-08 16:00N 54°28' W 162°36'1 1.4 7.3
2014-Dec-08 15:00N 54°28' W 162°33'1 0.6 7.3
2014-Dec-08 14:00N 54°27' W 162°33'0 0.2 7.4
2014-Dec-08 13:00N 54°27' W 162°33'2 1.0 7.4
2014-Dec-08 11:00N 54°26' W 162°30'1 0.3 7.3
2014-Dec-08 08:00N 54°27' W 162°30'2 1.5 7.4
2014-Dec-08 07:00N 54°27' W 162°28'0 0.0 7.4
2014-Dec-08 06:00N 54°27' W 162°28'1 0.5 7.3
2014-Dec-08 04:00N 54°28' W 162°29'0 0.0 7.3
2014-Dec-08 03:00N 54°28' W 162°29'1 0.5 7.2
2014-Dec-08 01:00N 54°29' W 162°29'2 0.8 7.3
2014-Dec-07 23:00N 54°30' W 162°28'0 0.0 7.1
2014-Dec-07 21:00N 54°30' W 162°28'2 2.1 7.2
2014-Dec-07 20:00N 54°32' W 162°26'0 0.2 7.3
2014-Dec-07 18:00N 54°32' W 162°26'0 0.0 7.4
2014-Dec-07 17:00N 54°32' W 162°26'2 1.1 7.4
2014-Dec-07 15:00N 54°34' W 162°24'0 0.0 7.3
2014-Dec-07 14:00N 54°34' W 162°24'0 0.2 7.4
2014-Dec-07 13:00N 54°34' W 162°24'3 1.1 7.4
2014-Dec-07 10:00N 54°34' W 162°18'3 1.0 7.3
2014-Dec-07 07:00N 54°34' W 162°13'0 0.4 7.3
2014-Dec-07 06:00N 54°35' W 162°13'1 1.0 7.3
2014-Dec-07 05:00N 54°35' W 162°12'1 0.6 7.3
2014-Dec-07 03:00N 54°36' W 162°11'2 1.2 7.3
2014-Dec-07 01:00N 54°38' W 162°08'0 0.0 7.4
2014-Dec-07 00:00N 54°38' W 162°08'0 0.1 7.4
2014-Dec-06 23:00N 54°38' W 162°08'1 1.0 7.4
2014-Dec-06 22:00N 54°38' W 162°06'1 0.5 7.4
2014-Dec-06 20:00N 54°38' W 162°04'1 0.2 7.4
2014-Dec-06 17:00N 54°38' W 162°03'0 0.0 7.4
2014-Dec-06 15:00N 54°38' W 162°03'1 0.6 7.3
2014-Dec-06 13:00N 54°39' W 162°01'0 0.0 7.3
2014-Dec-06 12:00N 54°39' W 162°02'0 0.5 7.2
2014-Dec-06 11:00N 54°39' W 162°01'0 0.0 7.3
2014-Dec-06 09:00N 54°39' W 162°01'1 1.1 7.3
2014-Dec-06 08:00N 54°39' W 161°59'0 0.4 7.3
2014-Dec-06 07:00N 54°39' W 161°58'1 1.2 7.3
2014-Dec-06 06:00N 54°39' W 161°56'2 0.8 7.3
2014-Dec-06 03:00N 54°40' W 161°53'0 0.1 7.3
2014-Dec-06 02:00N 54°40' W 161°53'0 0.2 7.4
2014-Dec-06 01:00N 54°40' W 161°52'2 2.1 7.4
2014-Dec-06 00:00N 54°42' W 161°50'0 0.2 7.4
2014-Dec-05 23:00N 54°42' W 161°50'0 0.4 7.4
2014-Dec-05 22:00N 54°42' W 161°50'0 0.2 7.3
2014-Dec-05 21:00N 54°42' W 161°50'0 0.1 7.3
2014-Dec-05 20:00N 54°42' W 161°50'   7.3

Dump ship's entire track history